Aviation Digital Data Service (ADDS)

Output produced by METARs form (0934 UTC 23 July 2019)
found at http://www.aviationweather.gov/metar/data/
 
Forecast for: CYFC (FREDERICTON AIRP, NB, CA)
Text: TAF CYFC 230541Z 2306/2318 VRB03KT P6SM SCT050 OVC100
Forecast period: 0600 to 1200 UTC 23 July 2019
Forecast type: FROM: standard forecast or significant change
Winds: variable direction winds at 3 MPH (3 knots; 1.5 m/s)
Visibility: 6 or more miles 10+ km)
Ceiling: 10000 feet AGL
Clouds: scattered clouds at 5000 feet AGL
overcast cloud deck at 10000 feet AGL
Weather: no significant weather forecast for this period
Text: TEMPO 2306/2311 P6SM -SHRA BKN050 OVC100
Forecast period: 0600 to 1100 UTC 23 July 2019
Forecast type: TEMPORARY: The following changes expected for less than half the time period
Visibility: 6 or more miles 10+ km)
Ceiling: 5000 feet AGL
Clouds: broken clouds at 5000 feet AGL
overcast cloud deck at 10000 feet AGL
Weather: -SHRA  (light rain showers)
Text: FM231200 VRB03KT P6SM SCT050 BKN120 RMK FCST BASED ON AUTO OBS. NXT FCST BY 231200Z
Forecast period: 1200 to 1800 UTC 23 July 2019
Forecast type: FROM: standard forecast or significant change
Winds: variable direction winds at 3 MPH (3 knots; 1.5 m/s)
Visibility: 6 or more miles 10+ km)
Ceiling: 12000 feet AGL
Clouds: scattered clouds at 5000 feet AGL
broken clouds at 12000 feet AGL
Weather: no significant weather forecast for this period